Time;durP1;ratioP1;P1;durP2;ratioP2;P2;SDS_P1;SDS_P2;PMS_P1;PMS_P2;Temp;Humidity;BMP_temperature;BMP_pressure;BME280_temperature;BME280_humidity;BME280_pressure;Samples;Min_cycle;Max_cycle;Signal;HPM_P1;HPM_P2
2023/07/27 00:00:34;;;;;;;13.73;13.23;;;16.20;99.90;;;;;;4962052;28;20491;-82
2023/07/27 00:03:03;;;;;;;13.90;13.50;;;16.10;99.90;;;;;;4957716;28;20469;-80
2023/07/27 00:05:32;;;;;;;13.73;13.23;;;16.20;99.90;;;;;;4960648;28;20478;-81
2023/07/27 00:08:00;;;;;;;14.40;13.90;;;16.20;99.90;;;;;;4960795;28;20462;-80
2023/07/27 00:10:29;;;;;;;13.77;13.37;;;16.20;99.90;;;;;;4960952;28;20569;-79
2023/07/27 00:12:58;;;;;;;14.27;13.70;;;16.20;99.90;;;;;;4959479;28;20896;-80
2023/07/27 00:15:26;;;;;;;14.07;13.57;;;16.20;99.90;;;;;;4959045;28;20462;-80
2023/07/27 00:17:54;;;;;;;13.23;12.73;;;16.20;99.90;;;;;;4959535;28;20507;-80
2023/07/27 00:20:22;;;;;;;13.83;13.43;;;16.20;99.90;;;;;;4953349;28;20544;-78
2023/07/27 00:22:51;;;;;;;13.90;13.40;;;16.20;99.90;;;;;;4961783;28;20480;-80
2023/07/27 00:25:19;;;;;;;14.50;14.00;;;16.20;99.90;;;;;;4961909;28;20487;-80
2023/07/27 00:27:49;;;;;;;14.07;13.60;;;16.20;99.90;;;;;;4958213;28;20482;-80
2023/07/27 00:30:17;;;;;;;13.93;13.53;;;16.20;99.90;;;;;;4959228;28;20446;-79
2023/07/27 00:32:45;;;;;;;13.50;13.10;;;16.20;99.90;;;;;;4960231;28;20480;-82
2023/07/27 00:35:13;;;;;;;13.57;13.07;;;16.20;99.90;;;;;;4958834;28;20466;-82
2023/07/27 00:37:42;;;;;;;13.50;13.00;;;16.20;99.90;;;;;;4960153;28;20454;-82
2023/07/27 00:40:10;;;;;;;13.77;13.27;;;16.20;99.90;;;;;;4959769;28;20481;-81
2023/07/27 00:42:39;;;;;;;13.30;12.90;;;16.20;99.90;;;;;;4957946;28;20469;-82
2023/07/27 00:45:09;;;;;;;13.30;12.80;;;16.20;99.90;;;;;;4958290;28;20514;-83
2023/07/27 00:47:38;;;;;;;13.03;12.70;;;16.30;99.90;;;;;;4957877;28;20462;-83
2023/07/27 00:50:06;;;;;;;14.53;13.93;;;16.30;99.90;;;;;;4960529;28;20538;-82
2023/07/27 00:52:35;;;;;;;13.53;13.03;;;16.30;99.90;;;;;;4961001;28;20901;-81
2023/07/27 00:55:03;;;;;;;13.20;12.80;;;16.30;99.90;;;;;;4961620;28;20545;-83
2023/07/27 00:57:31;;;;;;;13.37;12.80;;;16.20;99.90;;;;;;4959847;28;20542;-83
2023/07/27 01:00:00;;;;;;;13.40;12.70;;;16.20;99.90;;;;;;4959943;28;20983;-83
2023/07/27 01:02:29;;;;;;;13.10;12.70;;;16.20;99.90;;;;;;4958680;28;20479;-83
2023/07/27 01:04:58;;;;;;;13.30;12.87;;;16.20;99.90;;;;;;4959606;28;20879;-83
2023/07/27 01:07:26;;;;;;;13.37;12.97;;;16.20;99.90;;;;;;4956207;28;20466;-83
2023/07/27 01:09:54;;;;;;;13.90;13.40;;;16.20;99.90;;;;;;4953112;28;20466;-83
2023/07/27 01:12:32;;;;;;;13.90;13.50;;;16.20;99.90;;;;;;4959002;28;20557;-81
2023/07/27 01:15:07;;;;;;;13.73;13.30;;;16.20;99.90;;;;;;4960235;28;20457;-83
2023/07/27 01:17:43;;;;;;;13.43;12.93;;;16.10;99.90;;;;;;4970116;28;20462;-83
2023/07/27 01:20:20;;;;;;;13.30;12.90;;;16.10;99.90;;;;;;4958717;28;20482;-83
2023/07/27 01:23:32;;;;;;;14.13;13.50;;;16.10;99.90;;;;;;4958424;28;20473;-81
2023/07/27 01:26:30;;;;;;;13.50;13.07;;;16.10;99.90;;;;;;4954877;28;20719;-81
2023/07/27 01:29:08;;;;;;;13.67;13.17;;;16.10;99.90;;;;;;4959974;28;20462;-82
2023/07/27 01:31:42;;;;;;;13.67;13.07;;;16.10;99.90;;;;;;4959951;28;20948;-83
2023/07/27 01:34:16;;;;;;;13.00;12.70;;;16.10;99.90;;;;;;4960183;28;20535;-83
2023/07/27 01:36:50;;;;;;;13.40;13.00;;;16.10;99.90;;;;;;4958265;28;20892;-83
2023/07/27 01:39:21;;;;;;;13.50;12.90;;;16.10;99.90;;;;;;4958763;28;20549;-83
2023/07/27 01:41:51;;;;;;;13.53;13.13;;;16.10;99.90;;;;;;4957130;28;20513;-82
2023/07/27 01:44:22;;;;;;;13.20;12.80;;;16.10;99.90;;;;;;4958433;28;20840;-83
2023/07/27 01:46:52;;;;;;;13.40;13.00;;;16.10;99.90;;;;;;4956045;28;20481;-81
2023/07/27 01:49:22;;;;;;;13.60;13.20;;;16.10;99.90;;;;;;4960742;28;20467;-83
2023/07/27 01:51:51;;;;;;;13.10;12.80;;;16.10;99.90;;;;;;4960473;28;21411;-83
2023/07/27 01:54:20;;;;;;;12.70;12.30;;;16.10;99.90;;;;;;4956315;28;20542;-82
2023/07/27 01:56:49;;;;;;;12.93;12.60;;;16.00;99.90;;;;;;4960496;28;20471;-82
2023/07/27 01:59:18;;;;;;;13.40;12.90;;;16.00;99.90;;;;;;4957401;28;20462;-81
2023/07/27 02:01:47;;;;;;;13.60;13.20;;;16.00;99.90;;;;;;4956271;28;20506;-81
2023/07/27 02:04:16;;;;;;;13.40;12.97;;;16.00;99.90;;;;;;4959003;28;20472;-81
2023/07/27 02:06:51;;;;;;;13.10;12.70;;;16.00;99.90;;;;;;4958518;28;20459;-80
2023/07/27 02:09:19;;;;;;;13.53;13.13;;;16.00;99.90;;;;;;4957428;28;20461;-80
2023/07/27 02:11:54;;;;;;;13.27;12.87;;;16.00;99.90;;;;;;4961171;28;20762;-78
2023/07/27 02:14:32;;;;;;;13.87;13.47;;;16.00;99.90;;;;;;4959265;28;20457;-79
2023/07/27 02:17:05;;;;;;;13.57;13.00;;;16.00;99.90;;;;;;4957410;28;20449;-81
2023/07/27 02:19:38;;;;;;;14.00;13.60;;;16.00;99.90;;;;;;4955154;28;20451;-81
2023/07/27 02:22:10;;;;;;;13.37;13.07;;;16.00;99.90;;;;;;4955691;28;20485;-79
2023/07/27 02:24:39;;;;;;;13.50;13.10;;;16.00;99.90;;;;;;4959539;28;20465;-81
2023/07/27 02:27:07;;;;;;;14.40;13.50;;;16.00;99.90;;;;;;4956758;28;20470;-79
2023/07/27 02:29:35;;;;;;;14.50;14.00;;;16.00;99.90;;;;;;4958364;28;21003;-80
2023/07/27 02:32:04;;;;;;;13.97;13.57;;;15.90;99.90;;;;;;4954366;28;20483;-81
2023/07/27 02:34:33;;;;;;;13.90;13.37;;;16.00;99.90;;;;;;4954452;28;20456;-81
2023/07/27 02:37:02;;;;;;;13.90;13.30;;;16.00;99.90;;;;;;4956741;28;20488;-79
2023/07/27 02:39:30;;;;;;;13.47;13.07;;;16.00;99.90;;;;;;4959145;28;20469;-79
2023/07/27 02:41:58;;;;;;;14.20;13.70;;;16.00;99.90;;;;;;4957113;28;21016;-82
2023/07/27 02:44:26;;;;;;;13.70;13.20;;;16.00;99.90;;;;;;4958311;28;20454;-83
2023/07/27 02:46:54;;;;;;;13.30;12.80;;;16.10;99.90;;;;;;4955847;28;20450;-81
2023/07/27 02:49:22;;;;;;;13.80;13.40;;;16.10;99.90;;;;;;4953788;28;20476;-83
2023/07/27 02:51:52;;;;;;;13.97;13.47;;;16.10;99.90;;;;;;4956416;28;20490;-83
2023/07/27 02:54:20;;;;;;;13.80;13.30;;;16.10;99.90;;;;;;4960079;28;20478;-83
2023/07/27 02:56:49;;;;;;;13.80;13.30;;;16.10;99.90;;;;;;4958342;28;21375;-83
2023/07/27 02:59:17;;;;;;;14.07;13.67;;;16.10;99.90;;;;;;4957033;28;20465;-79
2023/07/27 03:01:45;;;;;;;14.67;14.10;;;16.10;99.90;;;;;;4957178;28;20987;-80
2023/07/27 03:04:14;;;;;;;14.67;14.17;;;16.10;99.90;;;;;;4957771;28;20466;-81
2023/07/27 03:06:43;;;;;;;14.70;14.30;;;16.10;99.90;;;;;;4955342;28;20462;-80
2023/07/27 03:09:12;;;;;;;14.90;14.30;;;16.10;99.90;;;;;;4962084;28;20454;-81
2023/07/27 03:11:40;;;;;;;14.60;14.10;;;16.10;99.90;;;;;;4959388;28;20482;-80
2023/07/27 03:14:08;;;;;;;14.13;13.53;;;16.10;99.90;;;;;;4961283;28;20549;-79
2023/07/27 03:16:37;;;;;;;14.33;13.83;;;16.10;99.90;;;;;;4959348;28;21081;-81
2023/07/27 03:19:05;;;;;;;14.00;13.63;;;16.10;99.90;;;;;;4959560;28;21022;-81
2023/07/27 03:21:33;;;;;;;14.30;13.73;;;16.10;99.90;;;;;;4962299;28;20491;-80
2023/07/27 03:24:01;;;;;;;14.50;13.90;;;16.10;99.90;;;;;;4961630;28;20462;-80
2023/07/27 03:26:31;;;;;;;14.50;14.00;;;16.10;99.90;;;;;;4961087;28;20497;-80
2023/07/27 03:28:59;;;;;;;14.40;13.80;;;16.20;99.90;;;;;;4962641;28;20477;-81
2023/07/27 03:31:28;;;;;;;14.00;13.53;;;16.10;99.90;;;;;;4963634;28;20477;-83
2023/07/27 03:33:56;;;;;;;14.40;14.00;;;16.10;99.90;;;;;;4964318;28;20559;-83
2023/07/27 03:36:25;;;;;;;14.37;13.87;;;16.10;99.90;;;;;;4959486;28;20462;-83
2023/07/27 03:38:53;;;;;;;13.63;13.23;;;16.10;99.90;;;;;;4960863;28;20454;-83
2023/07/27 03:41:21;;;;;;;14.60;14.00;;;16.20;99.90;;;;;;4960441;28;20505;-81
2023/07/27 03:43:50;;;;;;;14.13;13.73;;;16.20;99.90;;;;;;4961718;28;20458;-81
2023/07/27 03:46:18;;;;;;;15.07;14.30;;;16.10;99.90;;;;;;4959993;28;20458;-81
2023/07/27 03:48:48;;;;;;;14.30;13.90;;;16.20;99.90;;;;;;4961631;28;20466;-79
2023/07/27 03:51:16;;;;;;;14.00;13.50;;;16.10;99.90;;;;;;4962963;28;20570;-81
2023/07/27 03:53:45;;;;;;;14.23;13.83;;;16.10;99.90;;;;;;4961537;28;20458;-79
2023/07/27 03:56:13;;;;;;;14.60;14.10;;;16.10;99.90;;;;;;4957133;28;20454;-81
2023/07/27 03:58:41;;;;;;;13.90;13.50;;;16.10;99.90;;;;;;4960660;28;20463;-83
2023/07/27 04:01:10;;;;;;;14.80;14.20;;;16.10;99.90;;;;;;4950535;28;21031;-83
2023/07/27 04:03:38;;;;;;;14.53;14.03;;;16.10;99.90;;;;;;4957921;28;20467;-82
2023/07/27 04:06:07;;;;;;;14.73;14.30;;;16.10;99.90;;;;;;4959244;28;21148;-81
2023/07/27 04:08:35;;;;;;;15.40;14.53;;;16.10;99.90;;;;;;4961153;28;20998;-82
2023/07/27 04:11:03;;;;;;;14.53;14.03;;;16.10;99.90;;;;;;4961858;28;20493;-82
2023/07/27 04:13:31;;;;;;;14.77;14.27;;;16.10;99.90;;;;;;4954190;28;20470;-82
2023/07/27 04:15:59;;;;;;;14.80;14.40;;;16.10;99.90;;;;;;4959606;28;20471;-81
2023/07/27 04:18:28;;;;;;;14.10;13.70;;;16.10;99.90;;;;;;4962131;28;21198;-83
2023/07/27 04:20:57;;;;;;;14.60;13.90;;;16.10;99.90;;;;;;4959631;28;20485;-83
2023/07/27 04:23:25;;;;;;;14.53;13.93;;;16.10;99.90;;;;;;4953334;28;20486;-82
2023/07/27 04:25:53;;;;;;;14.30;13.90;;;16.10;99.90;;;;;;4960018;28;20502;-82
2023/07/27 04:28:22;;;;;;;14.63;14.03;;;16.10;99.90;;;;;;4962852;28;20466;-83
2023/07/27 04:30:50;;;;;;;14.50;13.90;;;16.10;99.90;;;;;;4961920;28;20555;-81
2023/07/27 04:33:18;;;;;;;14.00;13.60;;;16.10;99.90;;;;;;4957515;28;20454;-81
2023/07/27 04:35:48;;;;;;;14.23;13.63;;;16.10;99.90;;;;;;4957605;28;20454;-82
2023/07/27 04:38:16;;;;;;;14.27;13.77;;;16.20;99.90;;;;;;4958251;28;20467;-82
2023/07/27 04:40:44;;;;;;;14.13;13.60;;;16.20;99.90;;;;;;4970157;28;20495;-83
2023/07/27 04:43:13;;;;;;;13.27;12.97;;;16.20;99.90;;;;;;4958547;28;20584;-82
2023/07/27 04:45:41;;;;;;;13.60;13.20;;;16.20;99.90;;;;;;4956758;28;20490;-81
2023/07/27 04:48:09;;;;;;;14.90;14.23;;;16.30;99.90;;;;;;4956900;28;20539;-80
2023/07/27 04:50:37;;;;;;;14.20;13.67;;;16.30;99.90;;;;;;4959956;28;20540;-81
2023/07/27 04:53:07;;;;;;;13.20;12.90;;;16.30;99.90;;;;;;4956857;28;20778;-80
2023/07/27 04:55:35;;;;;;;13.40;13.00;;;16.30;99.90;;;;;;4956598;28;20907;-80
2023/07/27 04:58:03;;;;;;;13.77;13.30;;;16.40;99.90;;;;;;4959222;28;21062;-79
2023/07/27 05:00:31;;;;;;;13.70;13.23;;;16.40;99.90;;;;;;4959283;28;20482;-81
2023/07/27 05:02:59;;;;;;;13.97;13.37;;;16.40;99.90;;;;;;4960925;28;20495;-81
2023/07/27 05:05:27;;;;;;;13.43;13.03;;;16.50;99.90;;;;;;4958486;28;20463;-81
2023/07/27 05:07:55;;;;;;;13.67;13.23;;;16.50;99.90;;;;;;4960665;28;20460;-82
2023/07/27 05:10:25;;;;;;;13.53;13.23;;;16.40;99.90;;;;;;4957976;28;20996;-80
2023/07/27 05:12:53;;;;;;;13.73;13.33;;;16.50;99.90;;;;;;4956840;28;20451;-80
2023/07/27 05:16:21;;;;;;;14.90;14.30;;;16.50;99.90;;;;;;4955112;28;21026;-81
2023/07/27 05:18:49;;;;;;;14.20;13.53;;;16.50;99.90;;;;;;4956855;28;20546;-80
2023/07/27 05:21:17;;;;;;;14.47;13.97;;;16.50;99.90;;;;;;4959330;28;20573;-81
2023/07/27 05:23:45;;;;;;;13.80;13.40;;;16.40;99.90;;;;;;4959887;28;21071;-81
2023/07/27 05:26:15;;;;;;;14.57;13.93;;;16.50;99.90;;;;;;4957308;28;20466;-79
2023/07/27 05:28:43;;;;;;;14.27;13.87;;;16.50;99.90;;;;;;4955900;28;20455;-80
2023/07/27 05:31:11;;;;;;;14.40;13.90;;;16.50;99.90;;;;;;4954753;28;20481;-80
2023/07/27 05:33:39;;;;;;;15.00;14.20;;;16.50;99.90;;;;;;4956693;28;20455;-81
2023/07/27 05:36:07;;;;;;;13.93;13.43;;;16.50;99.90;;;;;;4959347;28;21004;-81
2023/07/27 05:38:35;;;;;;;14.50;13.90;;;16.50;99.90;;;;;;4958619;28;20467;-81
2023/07/27 05:41:04;;;;;;;14.20;13.70;;;16.60;99.90;;;;;;4956810;28;20490;-81
2023/07/27 05:43:33;;;;;;;14.00;13.50;;;16.60;99.90;;;;;;4961673;28;20553;-81
2023/07/27 05:46:01;;;;;;;14.70;14.00;;;16.60;99.90;;;;;;4961208;28;20458;-80
2023/07/27 05:48:31;;;;;;;14.17;13.57;;;16.50;99.90;;;;;;4962010;28;20470;-81
2023/07/27 05:50:59;;;;;;;14.50;14.00;;;16.50;99.90;;;;;;4961222;28;20597;-81
2023/07/27 05:53:27;;;;;;;14.50;14.00;;;16.50;99.90;;;;;;4962251;28;20482;-80
2023/07/27 05:55:55;;;;;;;14.43;13.77;;;16.50;99.90;;;;;;4960541;28;20472;-81
2023/07/27 05:58:24;;;;;;;14.20;13.60;;;16.50;99.90;;;;;;4972385;28;20669;-81
2023/07/27 06:01:01;;;;;;;14.80;14.30;;;16.50;99.90;;;;;;4956756;28;20500;-80
2023/07/27 06:03:30;;;;;;;14.20;13.70;;;16.50;99.90;;;;;;4953804;28;20255;-80
2023/07/27 06:05:58;;;;;;;15.20;14.70;;;16.50;99.90;;;;;;4958718;28;20473;-81
2023/07/27 06:08:27;;;;;;;14.13;13.73;;;16.50;99.90;;;;;;4974236;28;20995;-76
2023/07/27 06:11:03;;;;;;;14.70;14.10;;;16.60;99.90;;;;;;4959849;28;20475;-78
2023/07/27 06:13:32;;;;;;;14.90;14.40;;;16.50;99.90;;;;;;4959925;28;20975;-80
2023/07/27 06:16:02;;;;;;;14.57;14.07;;;16.40;99.90;;;;;;4957802;28;20533;-79
2023/07/27 06:18:30;;;;;;;15.07;14.57;;;16.40;99.90;;;;;;4958158;28;20644;-78
2023/07/27 06:20:59;;;;;;;15.00;14.40;;;16.40;1.00;;;;;;4959374;28;20504;-80
2023/07/27 06:23:27;;;;;;;15.17;14.57;;;16.40;1.00;;;;;;4952407;28;20489;-78
2023/07/27 06:25:56;;;;;;;15.00;14.50;;;16.50;1.00;;;;;;4954833;28;20466;-80
2023/07/27 06:28:24;;;;;;;14.97;14.27;;;16.60;1.00;;;;;;4958400;28;20456;-77
2023/07/27 06:30:52;;;;;;;14.70;14.20;;;16.50;1.00;;;;;;4959672;28;20563;-77
2023/07/27 06:33:22;;;;;;;14.90;14.50;;;16.60;1.00;;;;;;4960112;28;20458;-80
2023/07/27 06:35:50;;;;;;;15.10;14.60;;;16.60;1.00;;;;;;4958947;28;20964;-77
2023/07/27 06:38:18;;;;;;;15.50;14.93;;;16.50;1.00;;;;;;4960676;28;20533;-78
2023/07/27 06:40:46;;;;;;;16.50;15.63;;;16.60;1.00;;;;;;4960277;28;20998;-79
2023/07/27 06:43:14;;;;;;;15.00;14.40;;;16.60;1.00;;;;;;4959708;28;20483;-76
2023/07/27 06:45:42;;;;;;;15.50;15.00;;;16.60;1.00;;;;;;4963291;28;20466;-78
2023/07/27 06:48:11;;;;;;;15.57;15.03;;;16.70;1.00;;;;;;4960961;28;20898;-79
2023/07/27 06:50:40;;;;;;;15.07;14.63;;;16.80;1.00;;;;;;4963596;28;20482;-77
2023/07/27 06:53:09;;;;;;;15.53;14.90;;;16.80;1.00;;;;;;4962958;28;20512;-80
2023/07/27 06:55:37;;;;;;;15.37;14.60;;;16.90;1.00;;;;;;4954346;28;20490;-78
2023/07/27 06:58:05;;;;;;;15.50;15.00;;;16.80;1.00;;;;;;4958773;28;20456;-81
2023/07/27 07:00:33;;;;;;;15.53;15.03;;;16.90;1.00;;;;;;4961554;28;20540;-81
2023/07/27 07:03:01;;;;;;;16.10;15.50;;;16.90;1.00;;;;;;4962860;28;20528;-78
2023/07/27 07:05:30;;;;;;;16.10;15.60;;;16.90;1.00;;;;;;4959619;28;20481;-80
2023/07/27 07:07:59;;;;;;;15.37;14.90;;;17.00;1.00;;;;;;4963340;28;20617;-79
2023/07/27 07:10:28;;;;;;;15.60;15.10;;;17.00;1.00;;;;;;4961440;28;20488;-78
2023/07/27 07:12:56;;;;;;;15.47;15.07;;;17.00;1.00;;;;;;4964352;28;20459;-80
2023/07/27 07:15:25;;;;;;;16.00;15.43;;;17.00;1.00;;;;;;4962520;28;20450;-78
2023/07/27 07:17:53;;;;;;;16.40;15.80;;;17.10;1.00;;;;;;4960113;28;20462;-78
2023/07/27 07:20:22;;;;;;;15.17;14.67;;;17.10;1.00;;;;;;4962129;28;20456;-79
2023/07/27 07:22:50;;;;;;;15.40;14.90;;;17.00;1.00;;;;;;4962601;28;20451;-78
2023/07/27 07:25:20;;;;;;;15.03;14.63;;;17.00;1.00;;;;;;4953697;28;20480;-81
2023/07/27 07:27:48;;;;;;;15.47;14.97;;;17.10;1.00;;;;;;4963866;28;20447;-77
2023/07/27 07:30:17;;;;;;;15.47;14.97;;;17.10;1.00;;;;;;4960943;28;20550;-77
2023/07/27 07:32:45;;;;;;;15.97;15.40;;;17.10;1.00;;;;;;4960285;28;20547;-80
2023/07/27 07:35:14;;;;;;;15.40;15.00;;;17.00;1.00;;;;;;4961119;28;20451;-78
2023/07/27 07:37:42;;;;;;;14.83;14.43;;;16.90;1.00;;;;;;4961607;28;20443;-78
2023/07/27 07:40:11;;;;;;;15.40;14.87;;;16.90;1.00;;;;;;4963376;28;20894;-78
2023/07/27 07:42:40;;;;;;;15.40;14.90;;;16.90;1.00;;;;;;4960030;28;21178;-78
2023/07/27 07:45:09;;;;;;;15.30;14.70;;;17.00;1.00;;;;;;4955905;28;20489;-79
2023/07/27 07:47:37;;;;;;;15.53;14.97;;;17.10;1.00;;;;;;4960746;28;20471;-80
2023/07/27 07:50:07;;;;;;;15.47;14.90;;;17.00;1.00;;;;;;4961837;28;20518;-80
2023/07/27 07:52:35;;;;;;;15.97;15.20;;;17.10;1.00;;;;;;4963974;28;20569;-79
2023/07/27 07:55:06;;;;;;;15.07;14.67;;;17.00;1.00;;;;;;4962713;28;20445;-78
2023/07/27 07:57:35;;;;;;;15.63;15.13;;;17.10;1.00;;;;;;4958871;28;20464;-77
2023/07/27 08:00:05;;;;;;;15.50;14.80;;;17.00;1.00;;;;;;4962179;28;20934;-79
2023/07/27 08:02:33;;;;;;;15.53;14.93;;;17.10;1.00;;;;;;4954373;28;20491;-76
2023/07/27 08:05:02;;;;;;;15.47;14.97;;;17.00;1.00;;;;;;4951539;28;20788;-80
2023/07/27 08:07:30;;;;;;;15.00;14.53;;;17.10;1.00;;;;;;4961531;28;20463;-81
2023/07/27 08:09:59;;;;;;;15.00;14.40;;;17.10;1.00;;;;;;4961851;28;20566;-84
2023/07/27 08:12:27;;;;;;;15.30;14.80;;;17.10;1.00;;;;;;4961858;28;20474;-80
2023/07/27 08:14:55;;;;;;;15.57;15.07;;;17.20;1.00;;;;;;4959126;28;20465;-79
2023/07/27 08:17:25;;;;;;;15.20;14.70;;;17.20;1.00;;;;;;4959630;28;20456;-79
2023/07/27 08:19:53;;;;;;;15.97;15.30;;;17.20;1.00;;;;;;4955402;28;20457;-83
2023/07/27 08:22:21;;;;;;;15.97;15.43;;;17.30;1.00;;;;;;4952743;28;20482;-82
2023/07/27 08:24:50;;;;;;;15.87;15.37;;;17.20;1.00;;;;;;4954038;28;20482;-78
2023/07/27 08:27:22;;;;;;;16.03;15.43;;;17.10;1.00;;;;;;4957207;28;20849;-80
2023/07/27 08:29:51;;;;;;;16.13;15.60;;;17.20;1.00;;;;;;4957849;28;20454;-80
2023/07/27 08:32:19;;;;;;;16.47;15.87;;;17.20;1.00;;;;;;4960795;28;20893;-79
2023/07/27 08:34:49;;;;;;;15.90;15.17;;;17.20;1.00;;;;;;4955318;28;20455;-79
2023/07/27 08:37:17;;;;;;;16.30;15.70;;;17.40;1.00;;;;;;4957100;28;20448;-78
2023/07/27 08:39:45;;;;;;;15.97;15.47;;;17.40;1.00;;;;;;4959566;28;20834;-80
2023/07/27 08:42:15;;;;;;;15.10;14.70;;;17.30;1.00;;;;;;4955990;28;20485;-79
2023/07/27 08:44:44;;;;;;;15.67;15.17;;;17.30;1.00;;;;;;4955979;28;20957;-79
2023/07/27 08:47:13;;;;;;;15.10;14.70;;;17.40;1.00;;;;;;4957429;28;20815;-79
2023/07/27 08:49:43;;;;;;;15.60;15.10;;;17.40;1.00;;;;;;4959251;28;20973;-82
2023/07/27 08:52:14;;;;;;;15.93;15.40;;;17.40;1.00;;;;;;4959462;28;20497;-79
2023/07/27 08:54:42;;;;;;;15.50;15.00;;;17.40;1.00;;;;;;4960888;28;20834;-79
2023/07/27 08:57:10;;;;;;;15.97;15.47;;;17.30;1.00;;;;;;4958219;28;20674;-79
2023/07/27 08:59:38;;;;;;;15.97;15.40;;;17.30;1.00;;;;;;4962045;28;20478;-79
2023/07/27 09:02:07;;;;;;;16.00;15.50;;;17.30;1.00;;;;;;4960930;28;21077;-79
2023/07/27 09:04:36;;;;;;;16.20;15.60;;;17.40;1.00;;;;;;4957649;28;20522;-79
2023/07/27 09:07:07;;;;;;;16.23;15.53;;;17.50;1.00;;;;;;4956042;28;20550;-79
2023/07/27 09:09:37;;;;;;;15.83;15.33;;;17.40;99.90;;;;;;4957362;28;20462;-78
2023/07/27 09:12:06;;;;;;;15.87;15.37;;;17.40;1.00;;;;;;4957985;28;20468;-80
2023/07/27 09:14:36;;;;;;;15.73;15.23;;;17.50;99.90;;;;;;4955244;28;20469;-78
2023/07/27 09:17:07;;;;;;;16.13;15.63;;;17.50;99.90;;;;;;4954664;28;20483;-80
2023/07/27 09:19:37;;;;;;;16.80;16.20;;;17.50;99.90;;;;;;4954180;28;20467;-83
2023/07/27 09:22:07;;;;;;;15.73;15.23;;;17.60;99.90;;;;;;4957932;28;20499;-79
2023/07/27 09:24:37;;;;;;;16.37;15.83;;;17.60;99.90;;;;;;4958318;28;20482;-81
2023/07/27 09:27:11;;;;;;;16.40;15.70;;;17.60;99.90;;;;;;4956672;28;20483;-82
2023/07/27 09:29:41;;;;;;;15.70;15.30;;;17.60;99.90;;;;;;4958072;28;20480;-83
2023/07/27 09:32:11;;;;;;;16.27;15.77;;;17.70;99.90;;;;;;4962843;28;20574;-81
2023/07/27 09:34:39;;;;;;;16.60;15.97;;;17.70;99.90;;;;;;4960258;28;20444;-84
2023/07/27 09:37:09;;;;;;;17.03;16.43;;;17.70;99.90;;;;;;4957444;28;20835;-81
2023/07/27 09:39:42;;;;;;;17.00;16.40;;;17.70;99.90;;;;;;4957971;28;20514;-82
2023/07/27 09:42:13;;;;;;;16.60;16.00;;;17.80;99.90;;;;;;4962297;28;20471;-81
2023/07/27 09:44:53;;;;;;;16.63;16.03;;;17.80;99.90;;;;;;4974012;28;20487;-81
2023/07/27 09:47:23;;;;;;;16.30;15.70;;;17.80;99.90;;;;;;4958514;28;20466;-85
2023/07/27 09:49:53;;;;;;;16.10;15.60;;;17.80;99.90;;;;;;4961484;28;21036;-82
2023/07/27 09:52:23;;;;;;;16.03;15.53;;;17.80;99.90;;;;;;4962679;28;20486;-83
2023/07/27 09:54:55;;;;;;;17.10;16.40;;;17.70;99.90;;;;;;4961014;28;20483;-83
2023/07/27 09:57:25;;;;;;;15.83;15.33;;;17.80;99.90;;;;;;4962635;28;20501;-84
2023/07/27 09:59:54;;;;;;;16.20;15.50;;;17.80;99.90;;;;;;4963670;28;20543;-86
2023/07/27 10:02:23;;;;;;;16.30;15.70;;;17.70;99.90;;;;;;4964440;28;20485;-87
2023/07/27 10:04:59;;;;;;;16.03;15.43;;;17.80;99.90;;;;;;4964174;28;21023;-82
2023/07/27 10:07:32;;;;;;;16.90;16.10;;;17.80;99.90;;;;;;4963294;28;20494;-84
2023/07/27 10:10:36;;;;;;;16.90;16.10;;;17.80;99.90;;;;;;4963560;28;20451;-81
2023/07/27 10:13:12;;;;;;;17.20;16.50;;;17.90;99.90;;;;;;4962562;28;20462;-85
2023/07/27 10:15:42;;;;;;;16.80;16.30;;;17.80;99.90;;;;;;4962326;28;20649;-82
2023/07/27 10:18:14;;;;;;;17.83;17.03;;;17.90;99.90;;;;;;4962976;28;20470;-81
2023/07/27 10:20:43;;;;;;;16.60;16.00;;;17.90;99.90;;;;;;4960827;28;20554;-81
2023/07/27 10:23:16;;;;;;;17.60;16.80;;;17.90;99.90;;;;;;4963804;28;20768;-82
2023/07/27 10:26:05;;;;;;;16.80;16.20;;;18.00;99.90;;;;;;4961579;28;20534;-83
2023/07/27 10:28:37;;;;;;;16.03;15.50;;;18.00;99.90;;;;;;4961525;28;20459;-83
2023/07/27 10:31:45;;;;;;;17.07;16.40;;;18.00;99.90;;;;;;4963915;28;20494;-85
2023/07/27 10:34:25;;;;;;;16.30;15.70;;;18.00;99.90;;;;;;4963414;28;20547;-82
2023/07/27 10:41:58;;;;;;;16.40;15.70;;;18.30;99.90;;;;;;4917090;28;20569;-84
2023/07/27 10:48:22;;;;;;;16.83;15.80;;;18.40;99.90;;;;;;4963443;28;20446;-84
2023/07/27 10:50:51;;;;;;;15.90;15.40;;;18.40;99.90;;;;;;4957805;28;20486;-83
2023/07/27 10:53:19;;;;;;;16.60;15.97;;;18.40;99.90;;;;;;4979456;28;20475;-86
2023/07/27 10:56:18;;;;;;;16.40;15.80;;;18.40;99.90;;;;;;4961595;28;20487;-84
2023/07/27 10:59:00;;;;;;;16.13;15.63;;;18.40;99.90;;;;;;4957909;28;20458;-84
2023/07/27 11:09:28;;;;;;;16.20;15.70;;;18.70;99.90;;;;;;4850565;29;20478;-82
2023/07/27 11:12:00;;;;;;;16.67;16.13;;;18.80;99.90;;;;;;4891931;29;20539;-82
2023/07/27 11:15:13;;;;;;;16.40;15.70;;;18.80;99.90;;;;;;4921593;29;20545;-83
2023/07/27 11:17:45;;;;;;;16.33;15.83;;;18.80;99.90;;;;;;4888335;29;20477;-83
2023/07/27 11:26:55;;;;;;;16.00;15.50;;;18.90;99.90;;;;;;4938254;28;20926;-82
2023/07/27 11:29:49;;;;;;;15.70;15.30;;;19.00;99.90;;;;;;4949524;28;20463;-81
2023/07/27 11:36:31;;;;;;;16.37;15.83;;;19.00;99.90;;;;;;4934696;29;20468;-81
2023/07/27 11:43:10;;;;;;;16.87;16.10;;;19.00;99.90;;;;;;4912436;29;20534;-83
2023/07/27 11:50:17;;;;;;;16.83;16.23;;;19.10;99.90;;;;;;4932879;29;20448;-81
2023/07/27 11:53:08;;;;;;;15.73;15.13;;;19.00;99.90;;;;;;4930003;28;20461;-85
2023/07/27 11:55:47;;;;;;;15.60;15.10;;;19.00;99.90;;;;;;4944986;28;20456;-85
2023/07/27 11:58:34;;;;;;;15.40;14.90;;;19.10;99.90;;;;;;4944354;28;20514;-84
2023/07/27 12:01:04;;;;;;;15.53;15.00;;;19.10;1.00;;;;;;4946770;28;20568;-82
2023/07/27 12:03:35;;;;;;;16.13;15.57;;;19.10;1.00;;;;;;4944242;28;20488;-84
2023/07/27 12:06:04;;;;;;;15.97;15.47;;;19.20;1.00;;;;;;4940293;28;20626;-80
2023/07/27 12:08:37;;;;;;;15.80;15.30;;;19.20;1.00;;;;;;4937573;28;20833;-78
2023/07/27 12:11:09;;;;;;;15.90;15.40;;;19.20;1.00;;;;;;4936227;28;20591;-79
2023/07/27 12:13:57;;;;;;;15.60;15.20;;;19.20;1.00;;;;;;4943086;28;20507;-78
2023/07/27 12:16:27;;;;;;;16.13;15.27;;;19.20;1.00;;;;;;4940400;28;20456;-79
2023/07/27 12:19:15;;;;;;;15.93;15.43;;;19.30;50.80;;;;;;4945371;28;20467;-80
2023/07/27 12:21:48;;;;;;;15.87;15.37;;;19.20;7.80;;;;;;4944469;28;20488;-84
2023/07/27 12:24:21;;;;;;;16.07;15.47;;;19.20;99.90;;;;;;4941574;28;20457;-80
2023/07/27 12:26:58;;;;;;;16.00;15.50;;;19.20;93.80;;;;;;4947977;28;20510;-81
2023/07/27 12:29:31;;;;;;;16.47;15.60;;;19.20;99.90;;;;;;4941765;28;21081;-82
2023/07/27 12:32:02;;;;;;;16.60;16.00;;;19.10;99.90;;;;;;4949562;28;20555;-80
2023/07/27 12:34:34;;;;;;;15.90;15.27;;;19.10;99.90;;;;;;4944814;28;20460;-78
2023/07/27 12:37:22;;;;;;;17.00;16.20;;;19.20;1.00;;;;;;4944661;28;20444;-79
2023/07/27 12:39:54;;;;;;;15.90;15.40;;;19.20;1.00;;;;;;4943438;28;20460;-80
2023/07/27 12:42:38;;;;;;;16.03;15.53;;;19.30;1.00;;;;;;4948177;28;21004;-85
2023/07/27 12:45:09;;;;;;;16.00;15.50;;;19.30;1.00;;;;;;4941521;28;20461;-80
2023/07/27 12:47:37;;;;;;;16.30;15.80;;;19.20;1.00;;;;;;4949296;28;21016;-82
2023/07/27 12:50:06;;;;;;;16.20;15.67;;;19.30;1.00;;;;;;4945157;28;20995;-82
2023/07/27 12:52:35;;;;;;;16.00;15.50;;;19.30;99.90;;;;;;4946012;28;20495;-81
2023/07/27 12:55:05;;;;;;;17.30;16.60;;;19.30;1.00;;;;;;4942074;28;20488;-83
2023/07/27 12:57:33;;;;;;;16.30;15.80;;;19.40;99.90;;;;;;4949345;28;20447;-83
2023/07/27 13:00:05;;;;;;;16.67;16.07;;;19.40;99.90;;;;;;4948358;28;21028;-82
2023/07/27 13:02:54;;;;;;;16.53;15.97;;;19.50;99.90;;;;;;4943602;28;21009;-82
2023/07/27 13:05:29;;;;;;;16.40;15.70;;;19.40;99.90;;;;;;4943541;28;20463;-83
2023/07/27 13:07:57;;;;;;;16.00;15.50;;;19.40;96.50;;;;;;4940320;28;20601;-82
2023/07/27 13:10:27;;;;;;;16.10;15.60;;;19.40;1.00;;;;;;4940212;28;20456;-82
2023/07/27 13:12:58;;;;;;;16.93;16.10;;;19.40;99.90;;;;;;4934001;28;20496;-84
2023/07/27 13:15:26;;;;;;;16.47;15.73;;;19.40;99.90;;;;;;4938902;28;20953;-83
2023/07/27 13:17:55;;;;;;;16.00;15.50;;;19.30;66.20;;;;;;4946956;28;20539;-82
2023/07/27 13:20:23;;;;;;;15.77;15.37;;;19.30;99.90;;;;;;4943865;28;20468;-84
2023/07/27 13:22:51;;;;;;;16.00;15.50;;;19.30;1.00;;;;;;4943885;28;20931;-83
2023/07/27 13:25:19;;;;;;;16.83;16.20;;;19.30;1.00;;;;;;4942868;28;20503;-84